Vremea acum in Calarasi - Romania

Vrei sa afli care e starea vremii acum in Calarasi - Romania? Dorim sa iti furnizam starea vremii pentru Calarasi - Romania. Starea vremii Calarasi - Romania pentru astazi.

Vremea acum in Calarasi

Temperatura: 18 °C

Se simte ca: 18 °C
Innorat: 0 %
Precipitatii: 74 %
Presiune atmosferica: 1012 hPa
Umiditate: 94%
Vizibilitate: 10 km
Vantul bate din W cu 13 km/h

Evolutia vremii in Calarasi pe ore

Ora: 05:00
Ploi pe porţiuni în apropiere
Temperatura: 19.3°C
Sansa de precipitatii: 74%
Ora Descriere Temp Se simte Precipitatii Umiditate Vant
00:00Parțial noros24.1°26.7°55%72%SSW 5.4 KM/H
01:00Ploi pe porţiuni în apropiere21.9°21.9°28%75%WSW 6.5 KM/H
02:00Parțial noros19.8°19.8°0%77%W 7.2 KM/H
03:00Ploi pe porţiuni în apropiere19.6°19.6°25%79%WNW 6.5 KM/H
04:00Parțial noros19.5°19.5°49%81%WNW 6.1 KM/H
05:00Ploi pe porţiuni în apropiere19.3°19.3°74%83%NW 5.4 KM/H
06:00Ploi pe porţiuni în apropiere21.2°21.2°72%77%SSW 6.5 KM/H
07:00Ploi pe porţiuni în apropiere23.1°24°70%71%ESE 7.9 KM/H
08:00Ploi pe porţiuni în apropiere25°26.4°68%65%N 9 KM/H
09:00Parțial noros26.8°28.1°45%59%N 9.7 KM/H
10:00Ploi pe porţiuni în apropiere28.6°29.8°23%52%NNE 10.8 KM/H
11:00Parțial noros30.4°31.5°0%46%NNE 11.5 KM/H
12:00Parțial noros30.8°31.8°0%44%NNE 10.4 KM/H
13:00Parțial noros31.2°32°0%42%NNE 9.4 KM/H
14:00Parțial noros31.6°32.3°0%40%NNE 8.3 KM/H
15:00Parțial noros30.5°31.3°0%44%NE 10.1 KM/H
16:00Parțial noros29.4°30.2°0%47%E 11.9 KM/H
17:00Parțial noros28.3°29.2°0%51%ESE 13.7 KM/H
18:00Parțial noros26.9°27.9°0%51%ESE 12.6 KM/H
19:00Parțial noros25.6°26.7°0%52%ESE 11.9 KM/H
20:00Parțial noros24.2°25.4°0%52%SE 10.8 KM/H
21:00Parțial noros23.3°25.1°0%54%SSE 7.6 KM/H
22:00Parțial noros22.3°24.7°0%55%S 4.7 KM/H
23:00Parțial noros21.4°21.4°0%57%SSW 1.4 KM/H